sensor_id;sensor_type;location;lat;lon;timestamp;P1;durP1;ratioP1;P2;durP2;ratioP2
69822;SDS011;57119;52.516;13.508;2022-12-04T00:01:31;75.67;;;27.27;;
69822;SDS011;57119;52.516;13.508;2022-12-04T00:04:01;81.07;;;30.02;;
69822;SDS011;57119;52.516;13.508;2022-12-04T00:06:27;81.77;;;28.27;;
69822;SDS011;57119;52.516;13.508;2022-12-04T00:08:56;77.93;;;27.85;;
69822;SDS011;57119;52.516;13.508;2022-12-04T00:11:23;75.32;;;27.17;;
69822;SDS011;57119;52.516;13.508;2022-12-04T00:13:50;74.35;;;26.95;;
69822;SDS011;57119;52.516;13.508;2022-12-04T00:16:17;76.23;;;29.00;;
69822;SDS011;57119;52.516;13.508;2022-12-04T00:18:45;74.07;;;26.83;;
69822;SDS011;57119;52.516;13.508;2022-12-04T00:21:11;85.63;;;28.60;;
69822;SDS011;57119;52.516;13.508;2022-12-04T00:23:38;74.53;;;29.33;;
69822;SDS011;57119;52.516;13.508;2022-12-04T00:26:06;77.97;;;28.30;;
69822;SDS011;57119;52.516;13.508;2022-12-04T00:28:33;77.72;;;28.08;;
69822;SDS011;57119;52.516;13.508;2022-12-04T00:31:03;71.80;;;28.35;;
69822;SDS011;57119;52.516;13.508;2022-12-04T00:33:30;74.40;;;28.30;;
69822;SDS011;57119;52.516;13.508;2022-12-04T00:38:31;77.68;;;26.85;;
69822;SDS011;57119;52.516;13.508;2022-12-04T00:40:57;81.77;;;27.07;;
69822;SDS011;57119;52.516;13.508;2022-12-04T00:43:24;81.43;;;29.40;;
69822;SDS011;57119;52.516;13.508;2022-12-04T00:45:51;81.43;;;28.38;;
69822;SDS011;57119;52.516;13.508;2022-12-04T00:48:16;82.63;;;29.33;;
69822;SDS011;57119;52.516;13.508;2022-12-04T00:50:42;83.00;;;30.38;;
69822;SDS011;57119;52.516;13.508;2022-12-04T00:53:07;80.63;;;28.40;;
69822;SDS011;57119;52.516;13.508;2022-12-04T00:55:37;74.93;;;28.20;;
69822;SDS011;57119;52.516;13.508;2022-12-04T00:58:03;78.88;;;28.42;;
69822;SDS011;57119;52.516;13.508;2022-12-04T01:00:29;81.57;;;28.33;;
69822;SDS011;57119;52.516;13.508;2022-12-04T01:02:54;84.65;;;29.63;;
69822;SDS011;57119;52.516;13.508;2022-12-04T01:05:23;91.88;;;29.63;;
69822;SDS011;57119;52.516;13.508;2022-12-04T01:07:52;80.72;;;28.63;;
69822;SDS011;57119;52.516;13.508;2022-12-04T01:10:18;81.50;;;28.52;;
69822;SDS011;57119;52.516;13.508;2022-12-04T01:12:44;79.63;;;27.93;;
69822;SDS011;57119;52.516;13.508;2022-12-04T01:15:09;84.20;;;30.67;;
69822;SDS011;57119;52.516;13.508;2022-12-04T01:17:35;84.80;;;31.55;;
69822;SDS011;57119;52.516;13.508;2022-12-04T01:20:01;78.47;;;27.70;;
69822;SDS011;57119;52.516;13.508;2022-12-04T01:22:30;83.65;;;29.38;;
69822;SDS011;57119;52.516;13.508;2022-12-04T01:24:56;85.75;;;29.30;;
69822;SDS011;57119;52.516;13.508;2022-12-04T01:27:22;84.13;;;30.25;;
69822;SDS011;57119;52.516;13.508;2022-12-04T01:29:48;89.35;;;30.92;;
69822;SDS011;57119;52.516;13.508;2022-12-04T01:32:17;86.60;;;29.97;;
69822;SDS011;57119;52.516;13.508;2022-12-04T01:34:42;82.57;;;29.98;;
69822;SDS011;57119;52.516;13.508;2022-12-04T01:37:08;85.67;;;29.23;;
69822;SDS011;57119;52.516;13.508;2022-12-04T01:39:37;85.60;;;28.80;;
69822;SDS011;57119;52.516;13.508;2022-12-04T01:42:03;84.20;;;27.80;;
69822;SDS011;57119;52.516;13.508;2022-12-04T01:44:29;89.22;;;32.00;;
69822;SDS011;57119;52.516;13.508;2022-12-04T01:46:56;86.70;;;29.40;;
69822;SDS011;57119;52.516;13.508;2022-12-04T01:49:35;87.82;;;30.25;;
69822;SDS011;57119;52.516;13.508;2022-12-04T01:52:36;80.28;;;29.35;;
69822;SDS011;57119;52.516;13.508;2022-12-04T01:54:56;89.00;;;29.10;;
69822;SDS011;57119;52.516;13.508;2022-12-04T01:57:25;86.43;;;30.98;;
69822;SDS011;57119;52.516;13.508;2022-12-04T01:59:58;84.88;;;29.42;;
69822;SDS011;57119;52.516;13.508;2022-12-04T02:02:31;85.50;;;29.55;;
69822;SDS011;57119;52.516;13.508;2022-12-04T02:04:59;86.63;;;30.85;;
69822;SDS011;57119;52.516;13.508;2022-12-04T02:07:30;77.20;;;30.00;;
69822;SDS011;57119;52.516;13.508;2022-12-04T02:09:56;98.18;;;31.45;;
69822;SDS011;57119;52.516;13.508;2022-12-04T02:12:47;89.78;;;30.38;;
69822;SDS011;57119;52.516;13.508;2022-12-04T02:15:28;89.63;;;31.00;;
69822;SDS011;57119;52.516;13.508;2022-12-04T02:20:33;82.32;;;28.80;;
69822;SDS011;57119;52.516;13.508;2022-12-04T02:23:18;86.57;;;30.88;;
69822;SDS011;57119;52.516;13.508;2022-12-04T02:32:02;88.78;;;29.80;;
69822;SDS011;57119;52.516;13.508;2022-12-04T02:37:32;86.07;;;30.17;;
69822;SDS011;57119;52.516;13.508;2022-12-04T02:40:03;94.15;;;31.33;;
69822;SDS011;57119;52.516;13.508;2022-12-04T02:42:37;97.28;;;30.58;;
69822;SDS011;57119;52.516;13.508;2022-12-04T02:45:07;88.95;;;30.88;;
69822;SDS011;57119;52.516;13.508;2022-12-04T02:47:35;96.40;;;29.58;;
69822;SDS011;57119;52.516;13.508;2022-12-04T02:50:05;94.70;;;31.75;;
69822;SDS011;57119;52.516;13.508;2022-12-04T02:52:35;98.80;;;32.10;;
69822;SDS011;57119;52.516;13.508;2022-12-04T02:55:08;90.38;;;29.30;;
69822;SDS011;57119;52.516;13.508;2022-12-04T02:57:39;87.45;;;29.42;;
69822;SDS011;57119;52.516;13.508;2022-12-04T03:00:07;89.63;;;30.83;;
69822;SDS011;57119;52.516;13.508;2022-12-04T03:02:35;90.20;;;29.63;;
69822;SDS011;57119;52.516;13.508;2022-12-04T03:05:11;88.25;;;30.08;;
69822;SDS011;57119;52.516;13.508;2022-12-04T03:07:44;93.28;;;30.40;;
69822;SDS011;57119;52.516;13.508;2022-12-04T03:10:27;92.15;;;30.55;;
69822;SDS011;57119;52.516;13.508;2022-12-04T03:13:02;88.20;;;30.15;;
69822;SDS011;57119;52.516;13.508;2022-12-04T03:15:33;89.35;;;29.70;;
69822;SDS011;57119;52.516;13.508;2022-12-04T03:18:17;101.68;;;30.90;;
69822;SDS011;57119;52.516;13.508;2022-12-04T03:20:47;84.68;;;30.17;;
69822;SDS011;57119;52.516;13.508;2022-12-04T03:23:19;87.43;;;28.60;;
69822;SDS011;57119;52.516;13.508;2022-12-04T03:25:53;95.75;;;30.98;;
69822;SDS011;57119;52.516;13.508;2022-12-04T03:28:25;84.53;;;29.05;;
69822;SDS011;57119;52.516;13.508;2022-12-04T03:30:59;95.05;;;31.63;;
69822;SDS011;57119;52.516;13.508;2022-12-04T03:33:30;89.60;;;29.80;;
69822;SDS011;57119;52.516;13.508;2022-12-04T03:36:08;92.28;;;28.85;;
69822;SDS011;57119;52.516;13.508;2022-12-04T03:38:53;91.43;;;30.05;;
69822;SDS011;57119;52.516;13.508;2022-12-04T03:41:39;95.80;;;31.77;;
69822;SDS011;57119;52.516;13.508;2022-12-04T03:44:18;81.13;;;27.00;;
69822;SDS011;57119;52.516;13.508;2022-12-04T03:49:32;81.00;;;29.77;;
69822;SDS011;57119;52.516;13.508;2022-12-04T03:55:13;83.60;;;28.42;;
69822;SDS011;57119;52.516;13.508;2022-12-04T03:57:44;83.45;;;28.98;;
69822;SDS011;57119;52.516;13.508;2022-12-04T04:00:14;86.65;;;29.35;;
69822;SDS011;57119;52.516;13.508;2022-12-04T04:02:44;88.95;;;29.98;;
69822;SDS011;57119;52.516;13.508;2022-12-04T04:05:15;75.90;;;26.77;;
69822;SDS011;57119;52.516;13.508;2022-12-04T04:08:02;83.63;;;28.83;;
69822;SDS011;57119;52.516;13.508;2022-12-04T04:10:48;89.45;;;30.38;;
69822;SDS011;57119;52.516;13.508;2022-12-04T04:13:16;83.22;;;28.30;;
69822;SDS011;57119;52.516;13.508;2022-12-04T04:16:05;81.35;;;27.58;;
69822;SDS011;57119;52.516;13.508;2022-12-04T04:18:51;79.03;;;28.25;;
69822;SDS011;57119;52.516;13.508;2022-12-04T04:21:38;84.55;;;28.92;;
69822;SDS011;57119;52.516;13.508;2022-12-04T04:24:35;82.30;;;28.92;;
69822;SDS011;57119;52.516;13.508;2022-12-04T04:27:07;85.00;;;28.20;;
69822;SDS011;57119;52.516;13.508;2022-12-04T04:29:33;78.60;;;27.80;;
69822;SDS011;57119;52.516;13.508;2022-12-04T04:35:03;79.97;;;27.50;;
69822;SDS011;57119;52.516;13.508;2022-12-04T04:37:35;81.97;;;27.90;;
69822;SDS011;57119;52.516;13.508;2022-12-04T04:45:16;76.43;;;28.33;;
69822;SDS011;57119;52.516;13.508;2022-12-04T04:47:49;80.72;;;27.88;;
69822;SDS011;57119;52.516;13.508;2022-12-04T04:50:31;82.97;;;28.45;;
69822;SDS011;57119;52.516;13.508;2022-12-04T04:52:58;80.85;;;28.48;;
69822;SDS011;57119;52.516;13.508;2022-12-04T04:55:28;74.88;;;27.70;;
69822;SDS011;57119;52.516;13.508;2022-12-04T04:58:05;81.27;;;27.57;;
69822;SDS011;57119;52.516;13.508;2022-12-04T05:00:36;88.28;;;28.48;;
69822;SDS011;57119;52.516;13.508;2022-12-04T05:03:02;85.75;;;28.40;;
69822;SDS011;57119;52.516;13.508;2022-12-04T05:05:28;78.28;;;28.23;;
69822;SDS011;57119;52.516;13.508;2022-12-04T05:07:53;78.37;;;27.50;;
69822;SDS011;57119;52.516;13.508;2022-12-04T05:10:19;77.50;;;28.17;;
69822;SDS011;57119;52.516;13.508;2022-12-04T05:12:44;79.28;;;30.23;;
69822;SDS011;57119;52.516;13.508;2022-12-04T05:15:10;77.63;;;28.37;;
69822;SDS011;57119;52.516;13.508;2022-12-04T05:17:35;81.73;;;29.17;;
69822;SDS011;57119;52.516;13.508;2022-12-04T05:20:02;76.83;;;26.47;;
69822;SDS011;57119;52.516;13.508;2022-12-04T05:22:29;78.20;;;26.40;;
69822;SDS011;57119;52.516;13.508;2022-12-04T05:24:57;71.57;;;26.30;;
69822;SDS011;57119;52.516;13.508;2022-12-04T05:27:23;80.50;;;27.80;;
69822;SDS011;57119;52.516;13.508;2022-12-04T05:29:51;78.45;;;27.85;;
69822;SDS011;57119;52.516;13.508;2022-12-04T05:32:18;85.73;;;27.33;;
69822;SDS011;57119;52.516;13.508;2022-12-04T05:34:46;81.15;;;27.08;;
69822;SDS011;57119;52.516;13.508;2022-12-04T05:37:13;78.65;;;26.73;;
69822;SDS011;57119;52.516;13.508;2022-12-04T05:39:38;75.82;;;26.80;;
69822;SDS011;57119;52.516;13.508;2022-12-04T05:42:04;75.63;;;27.25;;
69822;SDS011;57119;52.516;13.508;2022-12-04T05:44:30;81.87;;;28.53;;
69822;SDS011;57119;52.516;13.508;2022-12-04T05:46:55;75.35;;;27.50;;
69822;SDS011;57119;52.516;13.508;2022-12-04T05:49:21;84.50;;;27.37;;
69822;SDS011;57119;52.516;13.508;2022-12-04T05:51:48;70.68;;;25.30;;
69822;SDS011;57119;52.516;13.508;2022-12-04T05:54:14;78.63;;;26.75;;
69822;SDS011;57119;52.516;13.508;2022-12-04T05:56:39;76.80;;;28.60;;
69822;SDS011;57119;52.516;13.508;2022-12-04T05:59:05;81.87;;;26.43;;
69822;SDS011;57119;52.516;13.508;2022-12-04T06:01:30;74.07;;;27.92;;
69822;SDS011;57119;52.516;13.508;2022-12-04T06:03:56;79.63;;;28.37;;
69822;SDS011;57119;52.516;13.508;2022-12-04T06:06:22;79.90;;;27.50;;
69822;SDS011;57119;52.516;13.508;2022-12-04T06:08:50;81.63;;;29.73;;
69822;SDS011;57119;52.516;13.508;2022-12-04T06:11:21;74.90;;;26.60;;
69822;SDS011;57119;52.516;13.508;2022-12-04T06:13:48;76.90;;;26.88;;
69822;SDS011;57119;52.516;13.508;2022-12-04T06:16:17;78.10;;;27.00;;
69822;SDS011;57119;52.516;13.508;2022-12-04T06:18:47;78.28;;;27.08;;
69822;SDS011;57119;52.516;13.508;2022-12-04T06:21:13;79.32;;;26.13;;
69822;SDS011;57119;52.516;13.508;2022-12-04T06:23:39;79.60;;;27.83;;
69822;SDS011;57119;52.516;13.508;2022-12-04T06:26:05;80.80;;;28.58;;
69822;SDS011;57119;52.516;13.508;2022-12-04T06:28:32;81.72;;;27.85;;
69822;SDS011;57119;52.516;13.508;2022-12-04T06:31:02;86.07;;;28.58;;
69822;SDS011;57119;52.516;13.508;2022-12-04T06:33:28;78.78;;;27.23;;
69822;SDS011;57119;52.516;13.508;2022-12-04T06:36:01;77.13;;;26.30;;
69822;SDS011;57119;52.516;13.508;2022-12-04T06:38:28;75.55;;;27.95;;
69822;SDS011;57119;52.516;13.508;2022-12-04T06:40:54;71.85;;;26.10;;
69822;SDS011;57119;52.516;13.508;2022-12-04T06:43:20;80.18;;;27.63;;
69822;SDS011;57119;52.516;13.508;2022-12-04T06:45:46;78.70;;;26.75;;
69822;SDS011;57119;52.516;13.508;2022-12-04T06:48:12;78.43;;;26.47;;
69822;SDS011;57119;52.516;13.508;2022-12-04T06:50:37;78.10;;;26.25;;
69822;SDS011;57119;52.516;13.508;2022-12-04T06:53:03;73.37;;;26.40;;
69822;SDS011;57119;52.516;13.508;2022-12-04T06:55:28;81.07;;;28.10;;
69822;SDS011;57119;52.516;13.508;2022-12-04T06:57:54;73.47;;;27.08;;
69822;SDS011;57119;52.516;13.508;2022-12-04T07:00:19;76.53;;;28.37;;
69822;SDS011;57119;52.516;13.508;2022-12-04T07:02:45;77.90;;;27.07;;
69822;SDS011;57119;52.516;13.508;2022-12-04T07:05:10;68.57;;;25.77;;
69822;SDS011;57119;52.516;13.508;2022-12-04T07:07:36;68.67;;;27.40;;
69822;SDS011;57119;52.516;13.508;2022-12-04T07:10:02;77.10;;;26.77;;
69822;SDS011;57119;52.516;13.508;2022-12-04T07:12:28;74.10;;;26.27;;
69822;SDS011;57119;52.516;13.508;2022-12-04T07:14:54;85.40;;;28.67;;
69822;SDS011;57119;52.516;13.508;2022-12-04T07:17:19;76.27;;;26.27;;
69822;SDS011;57119;52.516;13.508;2022-12-04T07:19:45;75.85;;;26.92;;
69822;SDS011;57119;52.516;13.508;2022-12-04T07:22:10;78.03;;;25.70;;
69822;SDS011;57119;52.516;13.508;2022-12-04T07:24:36;84.60;;;28.77;;
69822;SDS011;57119;52.516;13.508;2022-12-04T07:27:02;76.82;;;28.63;;
69822;SDS011;57119;52.516;13.508;2022-12-04T07:29:28;76.78;;;26.33;;
69822;SDS011;57119;52.516;13.508;2022-12-04T07:31:57;77.70;;;28.33;;
69822;SDS011;57119;52.516;13.508;2022-12-04T07:34:22;71.43;;;26.02;;
69822;SDS011;57119;52.516;13.508;2022-12-04T07:36:48;74.63;;;27.73;;
69822;SDS011;57119;52.516;13.508;2022-12-04T07:39:13;73.43;;;27.30;;
69822;SDS011;57119;52.516;13.508;2022-12-04T07:41:41;72.93;;;25.70;;
69822;SDS011;57119;52.516;13.508;2022-12-04T07:44:13;72.72;;;26.77;;
69822;SDS011;57119;52.516;13.508;2022-12-04T07:46:38;68.53;;;26.58;;
69822;SDS011;57119;52.516;13.508;2022-12-04T07:49:04;71.50;;;26.27;;
69822;SDS011;57119;52.516;13.508;2022-12-04T07:51:29;81.20;;;27.57;;
69822;SDS011;57119;52.516;13.508;2022-12-04T07:53:55;75.63;;;26.75;;
69822;SDS011;57119;52.516;13.508;2022-12-04T07:56:22;77.57;;;27.33;;
69822;SDS011;57119;52.516;13.508;2022-12-04T07:58:51;72.03;;;26.17;;
69822;SDS011;57119;52.516;13.508;2022-12-04T08:01:17;74.57;;;27.00;;
69822;SDS011;57119;52.516;13.508;2022-12-04T08:03:45;88.95;;;27.33;;
69822;SDS011;57119;52.516;13.508;2022-12-04T08:06:13;84.72;;;27.98;;
69822;SDS011;57119;52.516;13.508;2022-12-04T08:08:43;77.10;;;26.58;;
69822;SDS011;57119;52.516;13.508;2022-12-04T08:11:10;78.07;;;26.17;;
69822;SDS011;57119;52.516;13.508;2022-12-04T08:13:37;76.35;;;27.70;;
69822;SDS011;57119;52.516;13.508;2022-12-04T08:16:03;74.73;;;26.07;;
69822;SDS011;57119;52.516;13.508;2022-12-04T08:18:30;78.57;;;27.02;;
69822;SDS011;57119;52.516;13.508;2022-12-04T08:23:28;70.32;;;25.65;;
69822;SDS011;57119;52.516;13.508;2022-12-04T08:25:53;74.13;;;26.87;;
69822;SDS011;57119;52.516;13.508;2022-12-04T08:28:19;78.47;;;25.73;;
69822;SDS011;57119;52.516;13.508;2022-12-04T08:30:44;79.73;;;27.90;;
69822;SDS011;57119;52.516;13.508;2022-12-04T08:33:09;77.90;;;27.08;;
69822;SDS011;57119;52.516;13.508;2022-12-04T08:35:35;84.43;;;28.53;;
69822;SDS011;57119;52.516;13.508;2022-12-04T08:38:00;72.30;;;25.47;;
69822;SDS011;57119;52.516;13.508;2022-12-04T08:40:26;79.00;;;28.07;;
69822;SDS011;57119;52.516;13.508;2022-12-04T08:42:54;76.75;;;28.50;;
69822;SDS011;57119;52.516;13.508;2022-12-04T08:45:19;76.63;;;25.92;;
69822;SDS011;57119;52.516;13.508;2022-12-04T08:47:45;75.40;;;26.50;;
69822;SDS011;57119;52.516;13.508;2022-12-04T08:50:11;72.70;;;26.35;;
69822;SDS011;57119;52.516;13.508;2022-12-04T08:52:36;73.43;;;25.33;;
69822;SDS011;57119;52.516;13.508;2022-12-04T08:55:05;75.70;;;27.08;;
69822;SDS011;57119;52.516;13.508;2022-12-04T08:57:31;70.60;;;25.20;;
69822;SDS011;57119;52.516;13.508;2022-12-04T08:59:57;66.27;;;23.97;;
69822;SDS011;57119;52.516;13.508;2022-12-04T09:02:23;70.80;;;25.25;;
69822;SDS011;57119;52.516;13.508;2022-12-04T09:04:49;63.03;;;23.42;;
69822;SDS011;57119;52.516;13.508;2022-12-04T09:07:15;73.00;;;24.17;;
69822;SDS011;57119;52.516;13.508;2022-12-04T09:09:40;76.00;;;25.23;;
69822;SDS011;57119;52.516;13.508;2022-12-04T09:12:06;72.30;;;26.25;;
69822;SDS011;57119;52.516;13.508;2022-12-04T09:14:32;70.43;;;25.60;;
69822;SDS011;57119;52.516;13.508;2022-12-04T09:16:57;66.23;;;24.67;;
69822;SDS011;57119;52.516;13.508;2022-12-04T09:19:23;70.68;;;24.52;;
69822;SDS011;57119;52.516;13.508;2022-12-04T09:21:48;69.70;;;25.00;;
69822;SDS011;57119;52.516;13.508;2022-12-04T09:24:14;70.70;;;25.57;;
69822;SDS011;57119;52.516;13.508;2022-12-04T09:26:39;66.55;;;23.77;;
69822;SDS011;57119;52.516;13.508;2022-12-04T09:29:05;78.90;;;30.27;;
69822;SDS011;57119;52.516;13.508;2022-12-04T09:31:31;61.33;;;23.52;;
69822;SDS011;57119;52.516;13.508;2022-12-04T09:34:00;72.63;;;25.27;;
69822;SDS011;57119;52.516;13.508;2022-12-04T09:36:26;70.50;;;25.23;;
69822;SDS011;57119;52.516;13.508;2022-12-04T09:38:52;60.87;;;25.00;;
69822;SDS011;57119;52.516;13.508;2022-12-04T09:46:57;66.72;;;25.05;;
69822;SDS011;57119;52.516;13.508;2022-12-04T09:52:08;65.53;;;23.93;;
69822;SDS011;57119;52.516;13.508;2022-12-04T09:54:55;70.05;;;24.65;;
69822;SDS011;57119;52.516;13.508;2022-12-04T09:57:26;63.72;;;24.65;;
69822;SDS011;57119;52.516;13.508;2022-12-04T09:59:59;67.53;;;24.42;;
69822;SDS011;57119;52.516;13.508;2022-12-04T10:05:04;71.93;;;26.27;;
69822;SDS011;57119;52.516;13.508;2022-12-04T10:07:32;62.00;;;23.67;;
69822;SDS011;57119;52.516;13.508;2022-12-04T10:13:08;58.15;;;22.83;;
69822;SDS011;57119;52.516;13.508;2022-12-04T10:18:29;60.00;;;23.00;;
69822;SDS011;57119;52.516;13.508;2022-12-04T10:23:57;63.88;;;24.83;;
69822;SDS011;57119;52.516;13.508;2022-12-04T10:26:43;63.53;;;23.38;;
69822;SDS011;57119;52.516;13.508;2022-12-04T10:29:29;62.00;;;22.57;;
69822;SDS011;57119;52.516;13.508;2022-12-04T10:32:02;61.10;;;23.10;;
69822;SDS011;57119;52.516;13.508;2022-12-04T10:34:40;66.50;;;23.60;;
69822;SDS011;57119;52.516;13.508;2022-12-04T10:37:09;58.13;;;22.33;;
69822;SDS011;57119;52.516;13.508;2022-12-04T10:39:41;59.15;;;24.40;;
69822;SDS011;57119;52.516;13.508;2022-12-04T10:42:28;62.63;;;23.93;;
69822;SDS011;57119;52.516;13.508;2022-12-04T10:45:00;60.13;;;22.20;;
69822;SDS011;57119;52.516;13.508;2022-12-04T10:47:29;63.83;;;23.17;;
69822;SDS011;57119;52.516;13.508;2022-12-04T10:49:57;60.33;;;22.98;;
69822;SDS011;57119;52.516;13.508;2022-12-04T10:52:26;56.45;;;22.60;;
69822;SDS011;57119;52.516;13.508;2022-12-04T10:54:56;61.97;;;23.87;;
69822;SDS011;57119;52.516;13.508;2022-12-04T10:57:36;60.72;;;22.85;;
69822;SDS011;57119;52.516;13.508;2022-12-04T11:00:22;60.75;;;22.77;;
69822;SDS011;57119;52.516;13.508;2022-12-04T11:02:54;60.13;;;22.27;;
69822;SDS011;57119;52.516;13.508;2022-12-04T11:05:24;59.43;;;22.93;;
69822;SDS011;57119;52.516;13.508;2022-12-04T11:07:54;54.47;;;21.58;;
69822;SDS011;57119;52.516;13.508;2022-12-04T11:15:59;61.97;;;22.75;;
69822;SDS011;57119;52.516;13.508;2022-12-04T11:21:37;53.17;;;20.80;;
69822;SDS011;57119;52.516;13.508;2022-12-04T11:23:48;60.28;;;22.95;;
69822;SDS011;57119;52.516;13.508;2022-12-04T11:26:29;56.42;;;21.23;;
69822;SDS011;57119;52.516;13.508;2022-12-04T11:28:57;57.08;;;22.88;;
69822;SDS011;57119;52.516;13.508;2022-12-04T11:31:25;53.97;;;21.87;;
69822;SDS011;57119;52.516;13.508;2022-12-04T11:33:56;54.08;;;21.30;;
69822;SDS011;57119;52.516;13.508;2022-12-04T11:36:31;58.45;;;22.05;;
69822;SDS011;57119;52.516;13.508;2022-12-04T11:41:39;51.67;;;21.38;;
69822;SDS011;57119;52.516;13.508;2022-12-04T11:44:06;48.77;;;21.77;;
69822;SDS011;57119;52.516;13.508;2022-12-04T11:46:49;53.28;;;20.40;;
69822;SDS011;57119;52.516;13.508;2022-12-04T11:49:20;51.65;;;20.73;;
69822;SDS011;57119;52.516;13.508;2022-12-04T11:54:23;50.78;;;21.33;;
69822;SDS011;57119;52.516;13.508;2022-12-04T11:56:55;49.57;;;19.97;;
69822;SDS011;57119;52.516;13.508;2022-12-04T12:07:30;55.30;;;20.95;;
69822;SDS011;57119;52.516;13.508;2022-12-04T12:10:44;49.13;;;18.83;;
69822;SDS011;57119;52.516;13.508;2022-12-04T12:21:21;53.00;;;21.30;;
69822;SDS011;57119;52.516;13.508;2022-12-04T12:32:57;55.00;;;22.50;;
69822;SDS011;57119;52.516;13.508;2022-12-04T12:35:44;57.22;;;22.23;;
69822;SDS011;57119;52.516;13.508;2022-12-04T12:38:24;56.47;;;21.13;;
69822;SDS011;57119;52.516;13.508;2022-12-04T12:40:54;55.47;;;21.67;;
69822;SDS011;57119;52.516;13.508;2022-12-04T12:43:27;60.92;;;22.75;;
69822;SDS011;57119;52.516;13.508;2022-12-04T13:00:15;56.30;;;21.75;;
69822;SDS011;57119;52.516;13.508;2022-12-04T13:02:46;60.47;;;21.83;;
69822;SDS011;57119;52.516;13.508;2022-12-04T13:05:36;56.70;;;21.33;;
69822;SDS011;57119;52.516;13.508;2022-12-04T13:10:49;56.72;;;20.98;;
69822;SDS011;57119;52.516;13.508;2022-12-04T13:13:33;53.92;;;20.80;;
69822;SDS011;57119;52.516;13.508;2022-12-04T13:37:56;57.78;;;21.42;;
69822;SDS011;57119;52.516;13.508;2022-12-04T13:45:48;61.33;;;21.27;;
69822;SDS011;57119;52.516;13.508;2022-12-04T13:48:29;58.00;;;22.20;;
69822;SDS011;57119;52.516;13.508;2022-12-04T13:53:40;65.68;;;22.45;;
69822;SDS011;57119;52.516;13.508;2022-12-04T13:56:07;65.93;;;23.58;;
69822;SDS011;57119;52.516;13.508;2022-12-04T13:59:01;66.87;;;23.77;;
69822;SDS011;57119;52.516;13.508;2022-12-04T14:01:37;59.55;;;22.58;;
69822;SDS011;57119;52.516;13.508;2022-12-04T14:04:05;61.17;;;22.73;;
69822;SDS011;57119;52.516;13.508;2022-12-04T14:06:35;69.15;;;23.55;;
69822;SDS011;57119;52.516;13.508;2022-12-04T14:09:18;63.40;;;23.58;;
69822;SDS011;57119;52.516;13.508;2022-12-04T14:11:55;72.70;;;24.47;;
69822;SDS011;57119;52.516;13.508;2022-12-04T14:14:32;70.38;;;23.70;;
69822;SDS011;57119;52.516;13.508;2022-12-04T14:17:04;61.00;;;23.48;;
69822;SDS011;57119;52.516;13.508;2022-12-04T14:19:34;64.75;;;23.40;;
69822;SDS011;57119;52.516;13.508;2022-12-04T14:22:02;73.38;;;24.15;;
69822;SDS011;57119;52.516;13.508;2022-12-04T14:24:35;70.37;;;25.10;;
69822;SDS011;57119;52.516;13.508;2022-12-04T14:27:28;73.68;;;25.20;;
69822;SDS011;57119;52.516;13.508;2022-12-04T14:29:57;80.80;;;24.92;;
69822;SDS011;57119;52.516;13.508;2022-12-04T14:32:28;71.03;;;23.45;;
69822;SDS011;57119;52.516;13.508;2022-12-04T14:34:57;71.00;;;25.10;;
69822;SDS011;57119;52.516;13.508;2022-12-04T14:37:25;71.22;;;24.08;;
69822;SDS011;57119;52.516;13.508;2022-12-04T14:39:58;78.45;;;24.92;;
69822;SDS011;57119;52.516;13.508;2022-12-04T14:45:02;80.90;;;25.60;;
69822;SDS011;57119;52.516;13.508;2022-12-04T14:53:11;79.68;;;25.45;;
69822;SDS011;57119;52.516;13.508;2022-12-04T14:58:46;80.20;;;25.80;;
69822;SDS011;57119;52.516;13.508;2022-12-04T15:03:49;80.80;;;24.88;;
69822;SDS011;57119;52.516;13.508;2022-12-04T15:08:53;78.35;;;26.58;;
69822;SDS011;57119;52.516;13.508;2022-12-04T15:11:44;79.43;;;26.27;;
69822;SDS011;57119;52.516;13.508;2022-12-04T15:14:46;79.65;;;26.23;;
69822;SDS011;57119;52.516;13.508;2022-12-04T15:17:15;85.93;;;25.77;;
69822;SDS011;57119;52.516;13.508;2022-12-04T15:19:43;86.73;;;25.90;;
69822;SDS011;57119;52.516;13.508;2022-12-04T15:22:20;80.20;;;24.27;;
69822;SDS011;57119;52.516;13.508;2022-12-04T15:24:47;91.68;;;25.75;;
69822;SDS011;57119;52.516;13.508;2022-12-04T15:27:14;83.43;;;26.27;;
69822;SDS011;57119;52.516;13.508;2022-12-04T15:29:42;89.82;;;26.55;;
69822;SDS011;57119;52.516;13.508;2022-12-04T15:32:12;88.33;;;27.50;;
69822;SDS011;57119;52.516;13.508;2022-12-04T15:34:41;87.75;;;28.15;;
69822;SDS011;57119;52.516;13.508;2022-12-04T15:37:26;92.40;;;28.08;;
69822;SDS011;57119;52.516;13.508;2022-12-04T15:39:55;85.32;;;26.85;;
69822;SDS011;57119;52.516;13.508;2022-12-04T15:47:20;95.05;;;27.13;;
69822;SDS011;57119;52.516;13.508;2022-12-04T15:49:48;91.63;;;28.17;;
69822;SDS011;57119;52.516;13.508;2022-12-04T15:52:15;103.07;;;30.33;;
69822;SDS011;57119;52.516;13.508;2022-12-04T15:54:55;106.57;;;27.83;;
69822;SDS011;57119;52.516;13.508;2022-12-04T15:57:28;100.43;;;29.48;;
69822;SDS011;57119;52.516;13.508;2022-12-04T15:59:59;97.80;;;28.83;;
69822;SDS011;57119;52.516;13.508;2022-12-04T16:02:38;94.28;;;29.88;;
69822;SDS011;57119;52.516;13.508;2022-12-04T16:05:11;106.27;;;29.03;;
69822;SDS011;57119;52.516;13.508;2022-12-04T16:07:58;100.35;;;30.63;;
69822;SDS011;57119;52.516;13.508;2022-12-04T16:10:32;103.68;;;28.90;;
69822;SDS011;57119;52.516;13.508;2022-12-04T16:13:02;108.03;;;30.65;;
69822;SDS011;57119;52.516;13.508;2022-12-04T16:15:38;109.40;;;28.30;;
69822;SDS011;57119;52.516;13.508;2022-12-04T16:18:06;104.83;;;27.83;;
69822;SDS011;57119;52.516;13.508;2022-12-04T16:20:35;105.18;;;28.75;;
69822;SDS011;57119;52.516;13.508;2022-12-04T16:23:01;99.50;;;28.45;;
69822;SDS011;57119;52.516;13.508;2022-12-04T16:25:28;119.70;;;31.95;;
69822;SDS011;57119;52.516;13.508;2022-12-04T16:27:59;110.63;;;31.33;;
69822;SDS011;57119;52.516;13.508;2022-12-04T16:30:26;120.97;;;30.47;;
69822;SDS011;57119;52.516;13.508;2022-12-04T16:32:54;113.22;;;31.50;;
69822;SDS011;57119;52.516;13.508;2022-12-04T16:35:19;129.67;;;33.50;;
69822;SDS011;57119;52.516;13.508;2022-12-04T16:37:45;113.75;;;30.63;;
69822;SDS011;57119;52.516;13.508;2022-12-04T16:40:11;109.60;;;28.65;;
69822;SDS011;57119;52.516;13.508;2022-12-04T16:42:38;110.10;;;32.00;;
69822;SDS011;57119;52.516;13.508;2022-12-04T16:47:42;119.10;;;33.67;;
69822;SDS011;57119;52.516;13.508;2022-12-04T16:50:09;122.32;;;33.67;;
69822;SDS011;57119;52.516;13.508;2022-12-04T16:52:35;115.43;;;30.90;;
69822;SDS011;57119;52.516;13.508;2022-12-04T16:55:00;106.97;;;31.63;;
69822;SDS011;57119;52.516;13.508;2022-12-04T16:57:26;112.77;;;33.10;;
69822;SDS011;57119;52.516;13.508;2022-12-04T16:59:51;110.63;;;31.50;;
69822;SDS011;57119;52.516;13.508;2022-12-04T17:02:19;133.43;;;32.70;;
69822;SDS011;57119;52.516;13.508;2022-12-04T17:04:50;114.50;;;30.70;;
69822;SDS011;57119;52.516;13.508;2022-12-04T17:07:16;104.00;;;29.87;;